Time;durP1;ratioP1;P1;durP2;ratioP2;P2;SDS_P1;SDS_P2;PMS_P1;PMS_P2;Temp;Humidity;BMP_temperature;BMP_pressure;BME280_temperature;BME280_humidity;BME280_pressure;Samples;Min_cycle;Max_cycle;Signal;HPM_P1;HPM_P2
2022/06/12 00:00:54;;;;;;;0.00;0.00;;;15.80;75.60;;;;;;5047561;28;20048;-70
2022/06/12 00:03:22;;;;;;;0.00;0.00;;;15.80;75.70;;;;;;5054852;28;20547;-70
2022/06/12 00:05:50;;;;;;;0.00;0.00;;;15.70;76.90;;;;;;5037022;28;20064;-70
2022/06/12 00:08:16;;;;;;;0.00;0.00;;;15.70;76.80;;;;;;5034208;28;20685;-70
2022/06/12 00:10:45;;;;;;;0.10;0.10;;;15.70;77.00;;;;;;5030234;28;20089;-70
2022/06/12 00:13:12;;;;;;;0.00;0.00;;;15.80;76.70;;;;;;5043441;28;20051;-70
2022/06/12 00:15:38;;;;;;;0.00;0.00;;;15.80;76.50;;;;;;5018608;28;20034;-70
2022/06/12 00:18:04;;;;;;;0.00;0.00;;;15.80;76.60;;;;;;5029966;28;20133;-70
2022/06/12 00:20:30;;;;;;;0.20;0.20;;;15.80;77.00;;;;;;5037089;28;20039;-70
2022/06/12 00:22:58;;;;;;;0.10;0.10;;;15.70;76.50;;;;;;5037978;28;20421;-71
2022/06/12 00:25:28;;;;;;;2.08;1.27;;;15.70;76.60;;;;;;5030419;28;20050;-71
2022/06/12 00:27:54;;;;;;;0.00;0.00;;;15.70;77.10;;;;;;5049445;28;20395;-70
2022/06/12 00:30:22;;;;;;;0.00;0.00;;;15.70;77.00;;;;;;5053025;28;20114;-70
2022/06/12 00:32:52;;;;;;;0.10;0.10;;;15.60;76.80;;;;;;5034487;28;20049;-70
2022/06/12 00:35:21;;;;;;;0.00;0.00;;;15.60;76.80;;;;;;5027423;28;20594;-71
2022/06/12 00:37:47;;;;;;;0.00;0.00;;;15.60;77.20;;;;;;5034918;28;20400;-71
2022/06/12 00:40:13;;;;;;;0.00;0.00;;;15.60;77.10;;;;;;5035885;28;20490;-70
2022/06/12 00:42:47;;;;;;;0.00;0.00;;;15.60;76.80;;;;;;5036344;28;20044;-70
2022/06/12 00:45:41;;;;;;;0.00;0.00;;;15.60;77.00;;;;;;5050198;28;20472;-70
2022/06/12 00:48:31;;;;;;;0.00;0.00;;;15.60;77.20;;;;;;5032431;28;20049;-70
2022/06/12 00:51:09;;;;;;;0.15;0.15;;;15.60;77.00;;;;;;5043855;28;20052;-70
2022/06/12 00:53:46;;;;;;;0.00;0.00;;;15.60;77.60;;;;;;5043856;28;20045;-70
2022/06/12 00:56:18;;;;;;;0.00;0.00;;;15.60;77.90;;;;;;5042788;28;20076;-70
2022/06/12 00:58:48;;;;;;;0.00;0.00;;;15.50;77.80;;;;;;5050168;28;20509;-70
2022/06/12 01:01:39;;;;;;;0.00;0.00;;;15.50;78.50;;;;;;5040542;28;20075;-70
2022/06/12 01:06:54;;;;;;;0.00;0.00;;;15.50;78.50;;;;;;5044573;28;20060;-70
2022/06/12 01:09:25;;;;;;;0.00;0.00;;;15.50;78.60;;;;;;5040744;28;20045;-70
2022/06/12 01:11:53;;;;;;;0.00;0.00;;;15.40;78.50;;;;;;5041410;28;20037;-71
2022/06/12 01:14:23;;;;;;;0.00;0.00;;;15.40;78.60;;;;;;5011759;28;20054;-71
2022/06/12 01:16:49;;;;;;;0.00;0.00;;;15.40;78.20;;;;;;5025770;28;20084;-70
2022/06/12 01:19:21;;;;;;;0.00;0.00;;;15.40;78.00;;;;;;5044434;28;20072;-70
2022/06/12 01:22:17;;;;;;;0.00;0.00;;;15.30;77.80;;;;;;5043757;28;20099;-70
2022/06/12 01:25:04;;;;;;;0.00;0.00;;;15.30;77.80;;;;;;5040888;28;20056;-70
2022/06/12 01:27:37;;;;;;;0.00;0.00;;;15.30;77.80;;;;;;5030099;28;20041;-70
2022/06/12 01:30:14;;;;;;;0.00;0.00;;;15.30;78.10;;;;;;5031530;28;20384;-71
2022/06/12 01:33:07;;;;;;;0.10;0.10;;;15.20;77.90;;;;;;5040533;28;20089;-70
2022/06/12 01:35:50;;;;;;;0.00;0.00;;;15.20;78.00;;;;;;5020959;28;20574;-70
2022/06/12 01:38:52;;;;;;;0.00;0.00;;;15.20;78.40;;;;;;5040621;28;20041;-70
2022/06/12 01:41:49;;;;;;;0.00;0.00;;;15.20;79.10;;;;;;5039528;28;20454;-70
2022/06/12 01:44:39;;;;;;;0.00;0.00;;;15.20;79.00;;;;;;5028849;28;20049;-70
2022/06/12 01:47:17;;;;;;;0.00;0.00;;;15.20;78.90;;;;;;5027746;28;20426;-70
2022/06/12 01:50:14;;;;;;;0.00;0.00;;;15.20;78.70;;;;;;5018125;28;20090;-70
2022/06/12 01:52:51;;;;;;;0.00;0.00;;;15.10;79.40;;;;;;5034548;28;20102;-70
2022/06/12 01:55:17;;;;;;;0.00;0.00;;;15.10;79.30;;;;;;5047208;28;20435;-70
2022/06/12 01:57:54;;;;;;;0.00;0.00;;;15.10;79.50;;;;;;5048503;28;20049;-70
2022/06/12 02:00:23;;;;;;;0.00;0.00;;;15.10;79.60;;;;;;5043818;28;20057;-70
2022/06/12 02:03:06;;;;;;;0.00;0.00;;;15.10;79.50;;;;;;5031440;28;20440;-70
2022/06/12 02:05:50;;;;;;;0.00;0.00;;;15.00;79.90;;;;;;5045774;28;20614;-70
2022/06/12 02:08:33;;;;;;;0.00;0.00;;;15.00;79.70;;;;;;5046826;28;20051;-70
2022/06/12 02:13:11;;;;;;;0.00;0.00;;;15.00;79.80;;;;;;5033638;28;20056;-70
2022/06/12 02:13:49;;;;;;;0.00;0.00;;;15.00;79.70;;;;;;5030797;28;20053;-70
2022/06/12 02:16:23;;;;;;;0.47;0.47;;;15.00;79.90;;;;;;5031109;28;20037;-70
2022/06/12 02:19:00;;;;;;;0.00;0.00;;;15.00;80.90;;;;;;5031256;28;20054;-70
2022/06/12 02:21:34;;;;;;;0.00;0.00;;;15.00;80.40;;;;;;5036480;28;20041;-70
2022/06/12 02:24:09;;;;;;;0.00;0.00;;;15.00;80.70;;;;;;5031211;28;20072;-70
2022/06/12 02:26:45;;;;;;;0.00;0.00;;;15.00;80.50;;;;;;5033881;28;20045;-70
2022/06/12 02:29:17;;;;;;;0.00;0.00;;;15.00;81.30;;;;;;5031161;28;20132;-70
2022/06/12 02:31:46;;;;;;;0.00;0.00;;;15.00;82.10;;;;;;5033710;28;20037;-70
2022/06/12 02:34:18;;;;;;;0.00;0.00;;;15.00;82.30;;;;;;5035204;28;20457;-70
2022/06/12 02:36:49;;;;;;;0.00;0.00;;;15.00;82.00;;;;;;5030701;28;20037;-70
2022/06/12 02:39:22;;;;;;;0.00;0.00;;;15.00;82.00;;;;;;5035813;28;20041;-70
2022/06/12 02:41:57;;;;;;;0.00;0.00;;;15.00;82.30;;;;;;5030891;28;20470;-70
2022/06/12 02:44:46;;;;;;;0.00;0.00;;;15.10;82.70;;;;;;5011086;28;20431;-70
2022/06/12 02:47:25;;;;;;;0.03;0.03;;;15.10;82.10;;;;;;5030165;28;20095;-70
2022/06/12 02:49:53;;;;;;;0.00;0.00;;;15.10;82.70;;;;;;5033167;28;20040;-70
2022/06/12 02:52:45;;;;;;;0.00;0.00;;;15.10;82.60;;;;;;5043724;28;20065;-70
2022/06/12 02:55:29;;;;;;;0.00;0.00;;;15.10;82.30;;;;;;5030119;28;20697;-70
2022/06/12 02:58:19;;;;;;;0.00;0.00;;;15.10;82.60;;;;;;5032669;28;20574;-70
2022/06/12 03:01:07;;;;;;;0.00;0.00;;;15.20;82.50;;;;;;5030984;28;20049;-70
2022/06/12 03:03:51;;;;;;;0.00;0.00;;;15.20;82.60;;;;;;5041014;28;20049;-70
2022/06/12 03:06:17;;;;;;;0.00;0.00;;;15.20;82.80;;;;;;5040731;28;20045;-70
2022/06/12 03:08:50;;;;;;;0.20;0.20;;;15.20;82.60;;;;;;5030595;28;20103;-70
2022/06/12 03:11:25;;;;;;;0.00;0.00;;;15.20;83.00;;;;;;5036536;28;20098;-70
2022/06/12 03:13:54;;;;;;;0.00;0.00;;;15.20;83.00;;;;;;5034608;28;20050;-69
2022/06/12 03:16:27;;;;;;;0.00;0.00;;;15.30;83.10;;;;;;5029312;28;20585;-70
2022/06/12 03:19:08;;;;;;;0.00;0.00;;;15.30;83.20;;;;;;5031424;28;20486;-70
2022/06/12 03:22:11;;;;;;;0.10;0.10;;;15.30;83.30;;;;;;5033002;28;20091;-70
2022/06/12 03:24:54;;;;;;;0.10;0.10;;;15.30;83.80;;;;;;5045679;28;20049;-70
2022/06/12 03:27:27;;;;;;;0.00;0.00;;;15.40;83.60;;;;;;5019852;28;20053;-70
2022/06/12 03:30:17;;;;;;;0.00;0.00;;;15.30;83.50;;;;;;5043922;28;20048;-70
2022/06/12 03:32:51;;;;;;;0.00;0.00;;;15.40;83.50;;;;;;5018353;28;20045;-69
2022/06/12 03:35:38;;;;;;;0.00;0.00;;;15.40;83.60;;;;;;5041384;28;20042;-70
2022/06/12 03:38:23;;;;;;;0.00;0.00;;;15.40;84.00;;;;;;5044092;28;20048;-70
2022/06/12 03:41:04;;;;;;;0.00;0.00;;;15.40;83.70;;;;;;5038692;28;20076;-70
2022/06/12 03:43:54;;;;;;;0.00;0.00;;;15.40;83.70;;;;;;5029981;28;20552;-70
2022/06/12 03:46:35;;;;;;;0.00;0.00;;;15.40;83.70;;;;;;5029905;28;20049;-70
2022/06/12 03:49:21;;;;;;;0.00;0.00;;;15.40;83.90;;;;;;5037409;28;20037;-70
2022/06/12 03:52:03;;;;;;;0.00;0.00;;;15.30;84.10;;;;;;5031592;28;20045;-70
2022/06/12 03:54:34;;;;;;;0.00;0.00;;;15.30;84.00;;;;;;5029670;28;20439;-70
2022/06/12 04:00:16;;;;;;;0.00;0.00;;;15.30;83.80;;;;;;5037678;28;20053;-70
2022/06/12 04:02:47;;;;;;;0.00;0.00;;;15.40;84.00;;;;;;5032760;28;20049;-70
2022/06/12 04:05:26;;;;;;;0.05;0.05;;;15.40;83.80;;;;;;5035480;28;20041;-70
2022/06/12 04:07:55;;;;;;;0.00;0.00;;;15.40;83.90;;;;;;5036924;28;20060;-70
2022/06/12 04:10:25;;;;;;;0.00;0.00;;;15.50;84.00;;;;;;5032444;28;20133;-70
2022/06/12 04:12:51;;;;;;;0.00;0.00;;;15.50;84.10;;;;;;5030236;28;20480;-70
2022/06/12 04:15:26;;;;;;;0.00;0.00;;;15.50;83.90;;;;;;5029037;28;20037;-70
2022/06/12 04:17:52;;;;;;;0.00;0.00;;;15.50;83.70;;;;;;5032038;28;20091;-70
2022/06/12 04:20:24;;;;;;;0.00;0.00;;;15.60;83.60;;;;;;5033952;28;20041;-70
2022/06/12 04:23:18;;;;;;;0.00;0.00;;;15.60;83.50;;;;;;5049759;28;20043;-70
2022/06/12 04:26:07;;;;;;;0.00;0.00;;;15.60;83.30;;;;;;5021218;28;20057;-70
2022/06/12 04:28:37;;;;;;;0.00;0.00;;;15.60;83.20;;;;;;5039148;28;20048;-70
2022/06/12 04:31:09;;;;;;;0.00;0.00;;;15.60;83.20;;;;;;5047659;28;20033;-70
2022/06/12 04:34:06;;;;;;;0.00;0.00;;;15.70;83.50;;;;;;5039494;28;20118;-70
2022/06/12 04:36:33;;;;;;;0.00;0.00;;;15.70;83.00;;;;;;5028814;28;20688;-70
2022/06/12 04:38:59;;;;;;;0.00;0.00;;;15.80;83.50;;;;;;5033222;28;20472;-70
2022/06/12 04:41:28;;;;;;;0.10;0.10;;;15.80;84.40;;;;;;5036121;28;20034;-70
2022/06/12 04:43:53;;;;;;;0.00;0.00;;;15.80;84.30;;;;;;5032397;28;20049;-70
2022/06/12 04:46:20;;;;;;;0.00;0.00;;;15.80;84.10;;;;;;5032264;28;20049;-69
2022/06/12 04:48:49;;;;;;;0.00;0.00;;;15.80;83.90;;;;;;5044302;28;20040;-69
2022/06/12 04:51:15;;;;;;;0.00;0.00;;;15.90;84.20;;;;;;5032482;28;20073;-69
2022/06/12 04:53:42;;;;;;;0.00;0.00;;;16.00;84.50;;;;;;5035803;28;20029;-69
2022/06/12 04:56:08;;;;;;;0.00;0.00;;;15.90;84.80;;;;;;5044394;28;20048;-69
2022/06/12 04:58:36;;;;;;;0.00;0.00;;;15.90;84.90;;;;;;5052419;28;20494;-70
2022/06/12 05:01:02;;;;;;;0.00;0.00;;;15.90;85.00;;;;;;5042764;28;20387;-70
2022/06/12 05:03:28;;;;;;;0.00;0.00;;;15.90;84.30;;;;;;5032442;28;20049;-70
2022/06/12 05:05:54;;;;;;;0.00;0.00;;;15.90;84.60;;;;;;5035897;28;20041;-70
2022/06/12 05:08:20;;;;;;;0.00;0.00;;;16.00;84.40;;;;;;5031158;28;20133;-70
2022/06/12 05:10:46;;;;;;;0.00;0.00;;;16.00;84.30;;;;;;5032304;28;20053;-70
2022/06/12 05:13:12;;;;;;;0.00;0.00;;;16.00;84.90;;;;;;5036550;28;20117;-69
2022/06/12 05:15:38;;;;;;;0.00;0.00;;;16.00;84.60;;;;;;5042650;28;20159;-69
2022/06/12 05:18:07;;;;;;;0.00;0.00;;;16.10;85.10;;;;;;5041345;28;20045;-69
2022/06/12 05:20:35;;;;;;;0.22;0.22;;;16.10;85.40;;;;;;5043904;28;20080;-69
2022/06/12 05:23:03;;;;;;;0.00;0.00;;;16.10;85.20;;;;;;5043559;28;20083;-69
2022/06/12 05:25:30;;;;;;;0.00;0.00;;;16.20;85.40;;;;;;5032322;28;20050;-69
2022/06/12 05:27:56;;;;;;;0.00;0.00;;;16.30;85.10;;;;;;5031418;28;20037;-69
2022/06/12 05:30:25;;;;;;;0.00;0.00;;;16.30;85.00;;;;;;5031555;28;20041;-69
2022/06/12 05:32:55;;;;;;;0.00;0.00;;;16.30;85.40;;;;;;5032064;28;20045;-69
2022/06/12 05:35:22;;;;;;;0.00;0.00;;;16.40;85.60;;;;;;5023773;28;20049;-68
2022/06/12 05:37:49;;;;;;;12.35;1.00;;;16.30;85.60;;;;;;5035778;28;20418;-69
2022/06/12 05:40:20;;;;;;;0.00;0.00;;;16.30;85.80;;;;;;5031134;28;20069;-69
2022/06/12 05:42:46;;;;;;;0.00;0.00;;;16.30;86.30;;;;;;5031506;28;20060;-69
2022/06/12 05:45:15;;;;;;;1.65;0.77;;;16.30;86.40;;;;;;5031562;28;20090;-69
2022/06/12 05:48:05;;;;;;;0.10;0.10;;;16.40;86.60;;;;;;5030240;28;20053;-69
2022/06/12 05:50:34;;;;;;;0.00;0.00;;;16.40;86.50;;;;;;5030918;28;20554;-69
2022/06/12 05:53:00;;;;;;;0.00;0.00;;;16.40;86.30;;;;;;5037609;28;20144;-68
2022/06/12 05:55:27;;;;;;;0.10;0.10;;;16.40;86.50;;;;;;5050985;28;20119;-69
2022/06/12 05:57:53;;;;;;;0.30;0.30;;;16.40;86.80;;;;;;5038910;28;20053;-69
2022/06/12 06:00:26;;;;;;;0.05;0.05;;;16.40;86.60;;;;;;5031226;28;20375;-69
2022/06/12 06:02:52;;;;;;;0.00;0.00;;;16.40;86.70;;;;;;5037669;28;20075;-69
2022/06/12 06:05:18;;;;;;;0.00;0.00;;;16.50;86.70;;;;;;5049309;28;20041;-69
2022/06/12 06:07:44;;;;;;;0.00;0.00;;;16.50;86.60;;;;;;5039287;28;20045;-69
2022/06/12 06:10:16;;;;;;;0.00;0.00;;;16.50;86.20;;;;;;5029802;28;20204;-69
2022/06/12 06:12:42;;;;;;;0.00;0.00;;;16.50;85.60;;;;;;5030844;28;20044;-69
2022/06/12 06:15:10;;;;;;;0.00;0.00;;;16.50;85.90;;;;;;5029202;28;20042;-68
2022/06/12 06:17:36;;;;;;;0.00;0.00;;;16.50;86.30;;;;;;5036110;28;20227;-69
2022/06/12 06:20:03;;;;;;;0.15;0.15;;;16.60;86.40;;;;;;5029845;28;20045;-68
2022/06/12 06:22:28;;;;;;;0.00;0.00;;;16.60;85.90;;;;;;5030452;28;20410;-68
2022/06/12 06:24:54;;;;;;;0.00;0.00;;;16.60;86.10;;;;;;5036655;28;20041;-68
2022/06/12 06:27:19;;;;;;;0.00;0.00;;;16.70;86.20;;;;;;5049103;28;20061;-68
2022/06/12 06:29:45;;;;;;;0.00;0.00;;;16.80;86.30;;;;;;5032533;28;20397;-68
2022/06/12 06:32:11;;;;;;;0.00;0.00;;;16.90;86.00;;;;;;5039122;28;20055;-68
2022/06/12 06:34:38;;;;;;;0.05;0.05;;;16.90;85.30;;;;;;5049729;28;20566;-69
2022/06/12 06:37:06;;;;;;;1.75;1.17;;;16.90;84.30;;;;;;5039589;28;20060;-69
2022/06/12 06:39:32;;;;;;;0.00;0.00;;;16.90;84.10;;;;;;5042352;28;20520;-69
2022/06/12 06:41:57;;;;;;;2.65;0.85;;;17.00;83.60;;;;;;5039709;28;20045;-69
2022/06/12 06:47:08;;;;;;;0.32;0.32;;;17.10;82.80;;;;;;5029397;28;20696;-70
2022/06/12 06:49:33;;;;;;;0.98;0.98;;;17.10;82.50;;;;;;5029301;28;20049;-69
2022/06/12 06:51:59;;;;;;;0.00;0.00;;;17.20;82.00;;;;;;5031579;28;20395;-70
2022/06/12 06:54:26;;;;;;;0.10;0.10;;;17.20;81.90;;;;;;5043758;28;20052;-68
2022/06/12 06:56:52;;;;;;;0.00;0.00;;;17.30;81.10;;;;;;5029294;28;20444;-69
2022/06/12 06:59:18;;;;;;;0.05;0.05;;;17.40;79.90;;;;;;5029259;28;20099;-68
2022/06/12 07:01:44;;;;;;;0.95;0.63;;;17.40;79.60;;;;;;5029301;28;20049;-69
2022/06/12 07:04:10;;;;;;;0.00;0.00;;;17.50;78.90;;;;;;5028782;28;20830;-68
2022/06/12 07:06:36;;;;;;;0.00;0.00;;;17.60;78.90;;;;;;5029391;28;20045;-68
2022/06/12 07:09:03;;;;;;;0.00;0.00;;;17.70;79.30;;;;;;5029328;28;20391;-69
2022/06/12 07:11:29;;;;;;;0.82;0.35;;;17.70;78.20;;;;;;5028966;28;20125;-68
2022/06/12 07:13:56;;;;;;;0.00;0.00;;;17.90;78.50;;;;;;5029070;28;20124;-68
2022/06/12 07:16:23;;;;;;;0.25;0.15;;;18.00;75.70;;;;;;5029283;28;20049;-69
2022/06/12 07:18:48;;;;;;;0.10;0.10;;;18.10;76.00;;;;;;5025429;28;20083;-69
2022/06/12 07:21:14;;;;;;;0.00;0.00;;;18.10;75.00;;;;;;5026126;28;20459;-71
2022/06/12 07:23:40;;;;;;;0.00;0.00;;;18.10;74.70;;;;;;5028244;28;20076;-71
2022/06/12 07:26:14;;;;;;;0.00;0.00;;;18.10;74.40;;;;;;5028904;28;20205;-71
2022/06/12 07:28:40;;;;;;;0.00;0.00;;;18.10;74.40;;;;;;5028146;28;20152;-71
2022/06/12 07:31:07;;;;;;;0.00;0.00;;;18.10;75.40;;;;;;5026746;28;20092;-71
2022/06/12 07:33:33;;;;;;;0.08;0.08;;;18.10;75.70;;;;;;5028221;28;20095;-71
2022/06/12 07:36:00;;;;;;;0.00;0.00;;;18.10;75.80;;;;;;5030933;28;20102;-72
2022/06/12 07:38:27;;;;;;;0.00;0.00;;;18.10;75.70;;;;;;5027603;28;20057;-68
2022/06/12 07:40:58;;;;;;;0.00;0.00;;;18.10;75.00;;;;;;5027697;28;20052;-68
2022/06/12 07:43:25;;;;;;;0.08;0.08;;;18.10;74.90;;;;;;5028116;28;20050;-68
2022/06/12 07:45:53;;;;;;;0.00;0.00;;;18.10;74.00;;;;;;5027225;28;20124;-68
2022/06/12 07:48:20;;;;;;;1.55;1.27;;;18.20;73.80;;;;;;5027441;28;20052;-70
2022/06/12 07:50:48;;;;;;;0.00;0.00;;;18.30;73.70;;;;;;5026041;28;20529;-66
2022/06/12 07:53:15;;;;;;;0.00;0.00;;;18.30;73.40;;;;;;5030982;28;20052;-69
2022/06/12 07:55:40;;;;;;;0.90;0.73;;;18.40;73.90;;;;;;5032524;28;20769;-68
2022/06/12 07:58:06;;;;;;;0.45;0.45;;;18.40;72.70;;;;;;5031851;28;20084;-68
2022/06/12 08:00:32;;;;;;;0.00;0.00;;;18.30;69.10;;;;;;5032075;28;20090;-68
2022/06/12 08:02:58;;;;;;;0.10;0.10;;;18.30;69.60;;;;;;5031641;28;20080;-68
2022/06/12 08:05:23;;;;;;;0.00;0.00;;;18.30;69.40;;;;;;5032931;28;20422;-68
2022/06/12 08:07:49;;;;;;;0.00;0.00;;;18.20;70.00;;;;;;5032707;28;20498;-69
2022/06/12 08:10:15;;;;;;;0.00;0.00;;;18.30;70.80;;;;;;5032592;28;20057;-68
2022/06/12 08:12:43;;;;;;;0.00;0.00;;;18.30;71.00;;;;;;5032786;28;20041;-69
2022/06/12 08:15:12;;;;;;;0.00;0.00;;;18.30;67.80;;;;;;5031513;28;20533;-69
2022/06/12 08:17:38;;;;;;;0.00;0.00;;;18.20;67.90;;;;;;5032853;28;20117;-68
2022/06/12 08:22:48;;;;;;;0.00;0.00;;;18.20;68.80;;;;;;5032620;28;20045;-69
2022/06/12 08:25:14;;;;;;;0.20;0.20;;;18.20;69.60;;;;;;5032539;28;20398;-68
2022/06/12 08:27:39;;;;;;;0.00;0.00;;;18.30;69.60;;;;;;5032472;28;20496;-68
2022/06/12 08:30:06;;;;;;;0.00;0.00;;;18.30;70.20;;;;;;5032684;28;20050;-68
2022/06/12 08:32:32;;;;;;;0.00;0.00;;;18.50;70.10;;;;;;5032156;28;20115;-68
2022/06/12 08:35:03;;;;;;;0.05;0.05;;;18.40;68.90;;;;;;5032153;28;20064;-68
2022/06/12 08:37:32;;;;;;;;;;;18.40;69.10;;;;;;5032641;28;20071;-69
2022/06/12 08:39:59;;;;;;;0.00;0.00;;;18.40;68.00;;;;;;5032512;28;19921;-68
2022/06/12 08:42:37;;;;;;;0.10;0.10;;;18.50;68.50;;;;;;5032415;28;20041;-68
2022/06/12 08:45:12;;;;;;;0.10;0.10;;;18.50;67.90;;;;;;5032115;28;20107;-68
2022/06/12 08:48:07;;;;;;;0.00;0.00;;;18.60;68.90;;;;;;5031742;28;20132;-68
2022/06/12 08:50:48;;;;;;;0.00;0.00;;;18.60;66.70;;;;;;5031928;28;20140;-68
2022/06/12 08:53:38;;;;;;;4.78;0.90;;;18.50;65.70;;;;;;5031484;28;20040;-68
2022/06/12 08:56:11;;;;;;;0.00;0.00;;;18.50;65.20;;;;;;5031773;28;20053;-68
2022/06/12 08:59:01;;;;;;;0.00;0.00;;;18.60;65.40;;;;;;5031799;28;20038;-68
2022/06/12 09:01:29;;;;;;;0.00;0.00;;;18.40;65.00;;;;;;5031677;28;20048;-68
2022/06/12 09:03:55;;;;;;;0.00;0.00;;;18.40;66.80;;;;;;5030338;28;20125;-68
2022/06/12 09:06:37;;;;;;;0.00;0.00;;;18.50;67.70;;;;;;5031451;28;20049;-68
2022/06/12 09:09:14;;;;;;;0.00;0.00;;;18.60;67.00;;;;;;5031882;28;20038;-68
2022/06/12 09:11:46;;;;;;;0.10;0.10;;;18.60;66.00;;;;;;5031673;28;20061;-69
2022/06/12 09:14:33;;;;;;;0.00;0.00;;;18.80;67.80;;;;;;5031619;28;20388;-68
2022/06/12 09:17:14;;;;;;;0.43;0.43;;;18.80;66.10;;;;;;5021486;28;20038;-69
2022/06/12 09:19:58;;;;;;;0.00;0.00;;;19.00;67.10;;;;;;5030305;28;20052;-69
2022/06/12 09:22:52;;;;;;;0.00;0.00;;;19.00;67.40;;;;;;5028382;28;20038;-69
2022/06/12 09:25:22;;;;;;;0.13;0.13;;;19.00;65.50;;;;;;5032748;28;20076;-69
2022/06/12 09:28:12;;;;;;;0.00;0.00;;;19.00;65.50;;;;;;5030667;28;20056;-69
2022/06/12 09:30:49;;;;;;;0.00;0.00;;;19.00;65.70;;;;;;5030172;28;20053;-69
2022/06/12 09:33:23;;;;;;;0.00;0.00;;;19.10;66.10;;;;;;5027741;28;20111;-69
2022/06/12 09:36:01;;;;;;;0.55;0.55;;;19.10;64.60;;;;;;5031403;28;20049;-69
2022/06/12 09:38:44;;;;;;;0.38;0.38;;;19.20;64.10;;;;;;5027772;28;20499;-69
2022/06/12 09:41:19;;;;;;;0.00;0.00;;;19.20;63.20;;;;;;5038528;28;20041;-69
2022/06/12 09:44:08;;;;;;;0.00;0.00;;;19.20;61.10;;;;;;5025055;28;20095;-69
2022/06/12 09:46:48;;;;;;;0.00;0.00;;;19.30;61.80;;;;;;5031822;28;20076;-68
2022/06/12 09:49:29;;;;;;;0.00;0.00;;;19.30;59.90;;;;;;5042904;28;20037;-75
2022/06/12 09:52:33;;;;;;;0.00;0.00;;;19.30;61.40;;;;;;5035628;28;20042;-69
2022/06/12 09:55:11;;;;;;;0.00;0.00;;;19.30;62.00;;;;;;5049557;28;20049;-68
2022/06/12 09:57:56;;;;;;;0.00;0.00;;;19.30;61.30;;;;;;5030918;28;20052;-68
2022/06/12 10:00:33;;;;;;;0.30;0.30;;;19.40;61.80;;;;;;5030497;28;20053;-68
2022/06/12 10:03:23;;;;;;;0.10;0.10;;;19.30;60.40;;;;;;5030880;28;20050;-68
2022/06/12 10:05:56;;;;;;;0.00;0.00;;;19.30;61.30;;;;;;5030429;28;20045;-67
2022/06/12 10:08:41;;;;;;;0.00;0.00;;;19.20;61.20;;;;;;5029896;28;20168;-68
2022/06/12 10:11:35;;;;;;;0.00;0.00;;;19.10;62.60;;;;;;5029316;28;20598;-68
2022/06/12 10:14:20;;;;;;;0.00;0.00;;;19.20;61.60;;;;;;5029570;28;20061;-69
2022/06/12 10:17:00;;;;;;;0.00;0.00;;;19.30;61.30;;;;;;5029336;28;20056;-69
2022/06/12 10:19:32;;;;;;;0.47;0.47;;;19.30;61.00;;;;;;5028797;28;20050;-70
2022/06/12 10:22:03;;;;;;;0.10;0.10;;;19.30;61.20;;;;;;5030367;28;20033;-68
2022/06/12 10:24:29;;;;;;;0.22;0.22;;;19.30;61.00;;;;;;5030336;28;20406;-68
2022/06/12 10:26:59;;;;;;;0.00;0.00;;;19.30;62.90;;;;;;5029958;28;20092;-68
2022/06/12 10:29:25;;;;;;;0.20;0.20;;;19.20;62.80;;;;;;5029667;28;20041;-68
2022/06/12 10:32:04;;;;;;;0.40;0.40;;;19.20;63.00;;;;;;5030311;28;20076;-69
2022/06/12 10:34:32;;;;;;;0.00;0.00;;;19.30;62.00;;;;;;5030107;28;20052;-69
2022/06/12 10:37:28;;;;;;;0.30;0.30;;;19.30;63.00;;;;;;5029768;28;20102;-69
2022/06/12 10:40:01;;;;;;;46.47;0.98;;;19.30;63.70;;;;;;5029258;28;20034;-68
2022/06/12 10:42:50;;;;;;;0.08;0.08;;;19.20;60.80;;;;;;5028712;28;20037;-69
2022/06/12 10:45:22;;;;;;;0.30;0.30;;;19.30;63.00;;;;;;5028915;28;20121;-69
2022/06/12 10:47:49;;;;;;;0.10;0.10;;;19.40;62.90;;;;;;5011225;28;20057;-69
2022/06/12 10:50:26;;;;;;;0.00;0.00;;;19.50;61.70;;;;;;5029683;28;20049;-68
2022/06/12 10:53:09;;;;;;;0.00;0.00;;;19.60;61.70;;;;;;5022524;28;20033;-69
2022/06/12 10:56:00;;;;;;;0.10;0.10;;;19.60;62.90;;;;;;5028576;28;20057;-68
2022/06/12 10:58:57;;;;;;;0.00;0.00;;;19.40;62.70;;;;;;5028648;28;20525;-71
2022/06/12 11:01:42;;;;;;;0.00;0.00;;;19.50;63.40;;;;;;5028707;28;20394;-68
2022/06/12 11:04:29;;;;;;;0.00;0.00;;;19.50;60.90;;;;;;5028839;28;20037;-69
2022/06/12 11:07:19;;;;;;;0.00;0.00;;;19.40;61.10;;;;;;5029002;28;20051;-68
2022/06/12 11:10:04;;;;;;;0.80;0.75;;;19.30;61.90;;;;;;5026667;28;20057;-68
2022/06/12 11:12:54;;;;;;;0.73;0.57;;;19.20;64.00;;;;;;5030467;28;20072;-69
2022/06/12 11:15:32;;;;;;;0.03;0.03;;;19.20;64.70;;;;;;5045955;28;20053;-69
2022/06/12 11:18:36;;;;;;;0.03;0.03;;;19.30;63.10;;;;;;5032639;28;20082;-68
2022/06/12 11:21:20;;;;;;;0.00;0.00;;;19.20;61.70;;;;;;5022686;28;20418;-69
2022/06/12 11:24:08;;;;;;;0.00;0.00;;;19.20;62.70;;;;;;5024993;28;20046;-73
2022/06/12 11:27:08;;;;;;;0.00;0.00;;;19.20;63.00;;;;;;5047145;28;20060;-68
2022/06/12 11:29:37;;;;;;;0.00;0.00;;;19.30;63.10;;;;;;5042749;28;20073;-69
2022/06/12 11:32:15;;;;;;;0.20;0.20;;;19.30;61.00;;;;;;5029394;28;20152;-69
2022/06/12 11:35:00;;;;;;;0.35;0.35;;;19.30;60.00;;;;;;5029792;28;20046;-69
2022/06/12 11:37:47;;;;;;;0.30;0.30;;;19.30;61.00;;;;;;5044408;28;20057;-68
2022/06/12 11:40:19;;;;;;;0.35;0.35;;;19.50;60.60;;;;;;5028778;28;20041;-68
2022/06/12 11:43:03;;;;;;;;;;;19.50;60.30;;;;;;5029075;28;20077;-69
2022/06/12 11:45:46;;;;;;;0.00;0.00;;;19.60;60.90;;;;;;5029699;28;20019;-68
2022/06/12 11:48:21;;;;;;;0.00;0.00;;;19.80;60.80;;;;;;5025455;28;20049;-68
2022/06/12 11:51:11;;;;;;;0.10;0.10;;;19.80;59.30;;;;;;5011772;28;20037;-68
2022/06/12 11:53:46;;;;;;;0.63;0.63;;;19.50;57.20;;;;;;5028412;28;20132;-68
2022/06/12 11:56:47;;;;;;;0.00;0.00;;;19.30;60.10;;;;;;5041052;28;20168;-68
2022/06/12 11:59:37;;;;;;;0.00;0.00;;;19.40;58.80;;;;;;5025571;28;20052;-68
2022/06/12 12:02:26;;;;;;;0.00;0.00;;;19.50;59.00;;;;;;5043224;28;20072;-68
2022/06/12 12:05:26;;;;;;;0.00;0.00;;;19.50;58.70;;;;;;5031767;28;20069;-68
2022/06/12 12:08:15;;;;;;;0.00;0.00;;;19.60;59.40;;;;;;5029014;28;20041;-68
2022/06/12 12:11:08;;;;;;;0.00;0.00;;;19.70;59.10;;;;;;5027201;28;20085;-69
2022/06/12 12:13:47;;;;;;;0.00;0.00;;;19.60;58.10;;;;;;5024651;28;20410;-68
2022/06/12 12:16:27;;;;;;;0.00;0.00;;;19.30;59.80;;;;;;5029433;28;20077;-68
2022/06/12 12:18:59;;;;;;;0.00;0.00;;;19.40;60.30;;;;;;5008837;28;20129;-68
2022/06/12 12:21:48;;;;;;;8.68;1.13;;;19.20;60.10;;;;;;5018441;28;20095;-68
2022/06/12 12:24:21;;;;;;;0.00;0.00;;;19.30;61.70;;;;;;5045045;28;20128;-68
2022/06/12 12:26:50;;;;;;;0.00;0.00;;;19.50;62.00;;;;;;5046195;28;20045;-68
2022/06/12 12:29:24;;;;;;;0.00;0.00;;;19.60;61.40;;;;;;5042165;28;20877;-68
2022/06/12 12:31:50;;;;;;;0.00;0.00;;;19.70;58.30;;;;;;5028143;28;20044;-68
2022/06/12 12:34:19;;;;;;;0.00;0.00;;;19.50;59.50;;;;;;5027556;28;20056;-68
2022/06/12 12:42:30;;;;;;;0.13;0.13;;;19.60;60.20;;;;;;5030813;28;20395;-68
2022/06/12 12:45:09;;;;;;;0.03;0.03;;;19.60;61.20;;;;;;5029189;28;20099;-68
2022/06/12 12:47:36;;;;;;;2.20;1.83;;;19.60;59.60;;;;;;5032072;28;20037;-67
2022/06/12 12:50:13;;;;;;;0.00;0.00;;;19.50;58.10;;;;;;5032542;28;20090;-68
2022/06/12 12:52:55;;;;;;;0.00;0.00;;;19.60;60.40;;;;;;5030544;28;20124;-68
2022/06/12 12:55:38;;;;;;;0.10;0.10;;;19.90;60.50;;;;;;5028509;28;20037;-68
2022/06/12 12:58:35;;;;;;;0.00;0.00;;;19.90;59.00;;;;;;5031600;28;20064;-68
2022/06/12 13:01:16;;;;;;;0.00;0.00;;;19.70;58.10;;;;;;5019235;28;20049;-68
2022/06/12 13:03:47;;;;;;;0.00;0.00;;;19.50;60.10;;;;;;5029700;28;20494;-68
2022/06/12 13:06:30;;;;;;;1.00;0.52;;;19.60;58.70;;;;;;5029485;28;20049;-68
2022/06/12 13:09:17;;;;;;;0.00;0.00;;;19.50;59.20;;;;;;5030093;28;20037;-68
2022/06/12 13:12:01;;;;;;;0.00;0.00;;;19.30;58.10;;;;;;5029349;28;20506;-68
2022/06/12 13:14:54;;;;;;;0.00;0.00;;;19.30;59.50;;;;;;5029061;28;20034;-67
2022/06/12 13:17:51;;;;;;;0.10;0.10;;;19.60;61.30;;;;;;5030621;28;20076;-68
2022/06/12 13:20:42;;;;;;;0.25;0.25;;;19.60;59.80;;;;;;5027417;28;20390;-68
2022/06/12 13:23:55;;;;;;;0.30;0.30;;;19.60;60.60;;;;;;5030546;28;20045;-68
2022/06/12 13:26:22;;;;;;;0.00;0.00;;;19.80;59.90;;;;;;5030685;28;20049;-68
2022/06/12 13:28:59;;;;;;;0.00;0.00;;;19.90;60.20;;;;;;5030092;28;20034;-68
2022/06/12 13:31:28;;;;;;;0.80;0.57;;;20.10;60.70;;;;;;5028495;28;20099;-68
2022/06/12 13:33:58;;;;;;;0.00;0.00;;;20.00;57.60;;;;;;5030165;28;20045;-68
2022/06/12 13:36:34;;;;;;;0.00;0.00;;;19.90;58.30;;;;;;5029577;28;20128;-67
2022/06/12 13:39:03;;;;;;;0.00;0.00;;;19.90;59.30;;;;;;5028950;28;20038;-67
2022/06/12 13:41:35;;;;;;;1.25;0.88;;;19.70;57.90;;;;;;5030215;28;20045;-68
2022/06/12 13:44:19;;;;;;;0.10;0.10;;;19.60;59.90;;;;;;5032480;28;20040;-68
2022/06/12 13:46:45;;;;;;;2.05;1.20;;;19.80;58.60;;;;;;5029438;28;20091;-68